Kentfield, CA

10:49 AM PDT on October 31, 2014 (GMT -0700)
King Mountain | Change Station
CLOSE
Current Station
Personal Weather Station
Location: Larkspur, CA
Elevation: 460 ft
Nearby Weather Stations

Elev 460 ft 37.93 °N, 122.55 °W | Updated 28 seconds ago

Rain
Rain
57.7 °F
Feels Like 57.7 °F
N
0.0
Wind Variable Wind from West

Today
High -- | Low -- °F
--% Chance of Precip.
Yesterday
High -- | Low -- °F
Precip. -- in
7:34 AM 6:12 PM
First Quarter, 57% visible
Pressure 29.90 in
Visibility 2.0 miles
Clouds Mostly Cloudy 2400 ft
Mostly Cloudy 3300 ft
Mostly Cloudy 3900 ft
Dew Point 56 °F
Humidity 94%
Rainfall 0.30 in
Snow Depth Not available.
UV 1 out of 12
Pollen .50 out of 12
Air Quality Not available.
Flu Activity Not available.
METAR KO69 311730Z AUTO 29007KT 2SM BKN024 BKN033 BKN039 13/13 A2990 RMK AO1 P0004

More Conditions Fewer Conditions

Pressure 29.90 in
Visibility 2.0 miles
Clouds Mostly Cloudy 2400 ft
Mostly Cloudy 3300 ft
Mostly Cloudy 3900 ft
Dew Point 56 °F
Humidity 94%
Rainfall 0.30 in
Snow Depth Not available.
UV 1 out of 12
Pollen .50 out of 12
Air Quality Not available.
Flu Activity Not available.
METAR KO69 311730Z AUTO 29007KT 2SM BKN024 BKN033 BKN039 13/13 A2990 RMK AO1 P0004

More Conditions Fewer Conditions

10-Day Weather Forecast

Almanac

Astronomy

Oct. 31, 2014 Rise Set
Actual Time
Civil Twilight
Nautical Twilight
Astronomical Twilight
Moon
Length of Visible Light
Length of Day
Tomorrow will be .
, % of the Moon is Illuminated

Today's Extremes

State Highs State Lows

Community

WunderPhotos

Upload Photos

1,766,673 photos uploaded!

WunderBlogs® & News

Nearby

Air Quality

  Air Quality AQ Index Pollutant
Not available.

Snow Depth

Station Depth Elevation

Earthquake Activity

City Distance Mag. Time & Date
Minimum magnitude displayed is 2.5.

Coastal Water Temperatures

Place Temperature

Nearby Weather Stations